createdAt,value
2022-09-22T00:01:24.976Z,9.10
2022-09-22T00:04:01.433Z,9.00
2022-09-22T00:06:30.500Z,9.00
2022-09-22T00:09:02.206Z,9.00
2022-09-22T00:11:37.666Z,8.90
2022-09-22T00:14:09.052Z,8.90
2022-09-22T00:16:42.276Z,8.90
2022-09-22T00:19:13.702Z,8.90
2022-09-22T00:21:40.915Z,8.80
2022-09-22T00:24:13.022Z,8.80
2022-09-22T00:26:39.755Z,8.70
2022-09-22T00:29:10.452Z,8.60
2022-09-22T00:31:42.480Z,8.50
2022-09-22T00:34:20.291Z,8.50
2022-09-22T00:36:49.822Z,8.50
2022-09-22T00:39:17.896Z,8.60
2022-09-22T00:41:49.794Z,8.50
2022-09-22T00:44:34.482Z,8.50
2022-09-22T00:47:29.290Z,8.50
2022-09-22T00:50:33.459Z,8.50
2022-09-22T00:53:05.132Z,8.50
2022-09-22T00:55:57.588Z,8.50
2022-09-22T00:58:34.645Z,8.50
2022-09-22T01:01:02.064Z,8.40
2022-09-22T01:03:30.095Z,8.40
2022-09-22T01:06:01.653Z,8.40
2022-09-22T01:08:31.294Z,8.30
2022-09-22T01:10:59.488Z,8.30
2022-09-22T01:13:30.523Z,8.30
2022-09-22T01:16:00.263Z,8.30
2022-09-22T01:18:40.663Z,8.30
2022-09-22T01:21:28.364Z,8.30
2022-09-22T01:24:16.997Z,8.30
2022-09-22T01:27:19.557Z,8.30
2022-09-22T01:30:24.238Z,8.20
2022-09-22T01:33:30.025Z,8.20
2022-09-22T01:36:10.213Z,8.20
2022-09-22T01:38:39.969Z,8.20
2022-09-22T01:41:12.037Z,8.20
2022-09-22T01:43:57.756Z,8.20
2022-09-22T01:46:31.000Z,8.20
2022-09-22T01:49:00.681Z,8.20
2022-09-22T01:51:37.521Z,8.10
2022-09-22T01:54:14.837Z,8.10
2022-09-22T01:56:46.241Z,8.10
2022-09-22T01:59:16.308Z,8.10
2022-09-22T02:01:49.330Z,8.00
2022-09-22T02:04:53.154Z,8.00
2022-09-22T02:07:25.698Z,8.00
2022-09-22T02:09:54.281Z,8.00
2022-09-22T02:12:20.968Z,8.00
2022-09-22T02:14:47.884Z,8.00
2022-09-22T02:17:15.529Z,8.00
2022-09-22T02:19:42.544Z,7.90
2022-09-22T02:22:11.230Z,7.80
2022-09-22T02:24:39.455Z,7.80
2022-09-22T02:27:25.546Z,7.80
2022-09-22T02:30:00.789Z,7.90
2022-09-22T02:32:29.091Z,7.90
2022-09-22T02:34:56.565Z,7.90
2022-09-22T02:37:45.338Z,7.90
2022-09-22T02:40:43.757Z,7.90
2022-09-22T02:43:39.981Z,7.80
2022-09-22T02:46:18.677Z,7.80
2022-09-22T02:49:02.373Z,7.80
2022-09-22T02:51:30.862Z,7.70
2022-09-22T02:53:58.009Z,7.80
2022-09-22T02:56:24.827Z,7.70
2022-09-22T02:58:54.072Z,7.80
2022-09-22T03:01:24.424Z,7.80
2022-09-22T03:03:51.067Z,7.70
2022-09-22T03:06:17.698Z,7.70
2022-09-22T03:08:44.344Z,7.60
2022-09-22T03:11:10.943Z,7.60
2022-09-22T03:13:40.082Z,7.60
2022-09-22T03:16:06.854Z,7.50
2022-09-22T03:18:33.652Z,7.50
2022-09-22T03:21:00.650Z,7.40
2022-09-22T03:23:29.909Z,7.40
2022-09-22T03:25:58.996Z,7.40
2022-09-22T03:28:25.590Z,7.30
2022-09-22T03:30:57.032Z,7.30
2022-09-22T03:33:23.682Z,7.20
2022-09-22T03:35:50.319Z,7.10
2022-09-22T03:38:16.918Z,7.10
2022-09-22T03:40:50.868Z,7.10
2022-09-22T03:43:20.144Z,7.10
2022-09-22T03:45:47.089Z,7.10
2022-09-22T03:48:13.760Z,7.10
2022-09-22T03:50:45.124Z,7.10
2022-09-22T03:53:14.243Z,7.00
2022-09-22T03:55:43.189Z,7.00
2022-09-22T03:58:09.839Z,7.00
2022-09-22T04:00:36.455Z,7.00
2022-09-22T04:03:03.137Z,7.00
2022-09-22T04:05:32.259Z,7.00
2022-09-22T04:07:59.328Z,7.00
2022-09-22T04:10:26.890Z,7.00
2022-09-22T04:12:53.499Z,6.90
2022-09-22T04:15:22.662Z,6.90
2022-09-22T04:17:49.690Z,6.90
2022-09-22T04:20:16.800Z,6.90
2022-09-22T04:22:45.655Z,6.90
2022-09-22T04:25:12.531Z,6.90
2022-09-22T04:27:39.201Z,6.80
2022-09-22T04:30:06.496Z,6.80
2022-09-22T04:32:33.136Z,6.80
2022-09-22T04:35:02.024Z,6.80
2022-09-22T04:37:28.664Z,6.80
2022-09-22T04:39:55.465Z,6.80
2022-09-22T04:42:22.072Z,6.90
2022-09-22T04:44:48.737Z,6.90
2022-09-22T04:47:15.396Z,6.90
2022-09-22T04:49:42.068Z,6.90
2022-09-22T04:52:09.613Z,6.80
2022-09-22T04:54:36.393Z,6.80
2022-09-22T04:57:03.113Z,6.80
2022-09-22T04:59:29.782Z,6.80
2022-09-22T05:01:59.287Z,6.80
2022-09-22T05:04:28.545Z,6.80
2022-09-22T05:06:59.837Z,6.80
2022-09-22T05:09:26.473Z,6.80
2022-09-22T05:11:53.523Z,6.70
2022-09-22T05:14:25.564Z,6.70
2022-09-22T05:16:56.162Z,6.60
2022-09-22T05:19:22.856Z,6.60
2022-09-22T05:21:49.493Z,6.60
2022-09-22T05:24:20.411Z,6.50
2022-09-22T05:26:47.278Z,6.50
2022-09-22T05:29:18.258Z,6.60
2022-09-22T05:31:46.132Z,6.60
2022-09-22T05:34:15.112Z,6.50
2022-09-22T05:36:41.865Z,6.50
2022-09-22T05:39:08.577Z,6.60
2022-09-22T05:41:35.358Z,6.60
2022-09-22T05:44:02.261Z,6.60
2022-09-22T05:46:28.919Z,6.70
2022-09-22T05:48:55.644Z,6.80
2022-09-22T05:51:22.419Z,6.80
2022-09-22T05:53:49.133Z,6.90
2022-09-22T05:56:15.772Z,6.90
2022-09-22T05:58:42.436Z,6.90
2022-09-22T06:01:09.171Z,7.00
2022-09-22T06:03:35.870Z,7.00
2022-09-22T06:06:04.785Z,7.10
2022-09-22T06:08:31.469Z,7.20
2022-09-22T06:10:58.472Z,7.20
2022-09-22T06:13:25.238Z,7.30
2022-09-22T06:15:51.939Z,7.50
2022-09-22T06:18:26.168Z,7.50
2022-09-22T06:20:56.032Z,7.70
2022-09-22T06:23:23.092Z,7.70
2022-09-22T06:25:49.763Z,7.90
2022-09-22T06:28:16.494Z,8.00
2022-09-22T06:30:43.359Z,8.10
2022-09-22T06:33:11.390Z,8.20
2022-09-22T06:35:42.872Z,8.40
2022-09-22T06:38:13.927Z,8.50
2022-09-22T06:40:43.929Z,8.70
2022-09-22T06:43:22.600Z,8.90
2022-09-22T06:45:51.333Z,9.00
2022-09-22T06:48:19.036Z,9.10
2022-09-22T06:50:51.180Z,9.30
2022-09-22T06:53:19.141Z,9.50
2022-09-22T06:55:51.642Z,9.70
2022-09-22T06:58:20.001Z,9.80
2022-09-22T07:00:49.283Z,10.00
2022-09-22T07:03:22.439Z,10.20
2022-09-22T07:06:00.832Z,10.40
2022-09-22T07:08:33.151Z,10.60
2022-09-22T07:11:03.734Z,10.80
2022-09-22T07:13:35.890Z,11.00
2022-09-22T07:16:05.774Z,11.10
2022-09-22T07:18:32.539Z,11.30
2022-09-22T07:21:08.114Z,11.50
2022-09-22T07:23:36.663Z,11.60
2022-09-22T07:26:07.495Z,11.80
2022-09-22T07:28:36.184Z,11.90
2022-09-22T07:31:11.285Z,12.00
2022-09-22T07:33:39.652Z,12.20
2022-09-22T07:36:21.207Z,12.30
2022-09-22T07:38:52.010Z,12.40
2022-09-22T07:41:23.510Z,12.40
2022-09-22T07:43:52.519Z,12.60
2022-09-22T07:46:19.669Z,12.70
2022-09-22T07:48:48.970Z,12.90
2022-09-22T07:51:21.718Z,13.00
2022-09-22T07:54:09.104Z,13.10
2022-09-22T07:56:41.373Z,13.30
2022-09-22T07:59:10.814Z,13.30
2022-09-22T08:01:56.136Z,13.40
2022-09-22T08:04:23.711Z,13.60
2022-09-22T08:06:54.307Z,13.70
2022-09-22T08:09:24.532Z,13.80
2022-09-22T08:11:52.909Z,13.90
2022-09-22T08:14:22.173Z,14.10
2022-09-22T08:16:50.677Z,14.20
2022-09-22T08:19:18.447Z,14.50
2022-09-22T08:21:49.857Z,14.60
2022-09-22T08:24:22.633Z,14.60
2022-09-22T08:26:56.119Z,14.60
2022-09-22T08:29:24.267Z,14.80
2022-09-22T08:31:51.417Z,14.90
2022-09-22T08:34:18.443Z,15.00
2022-09-22T08:36:48.530Z,15.10
2022-09-22T08:39:20.835Z,15.10
2022-09-22T08:42:23.708Z,15.40
2022-09-22T08:45:09.246Z,15.60
2022-09-22T08:48:09.190Z,15.80
2022-09-22T08:51:19.405Z,16.00
2022-09-22T08:53:51.512Z,16.20
2022-09-22T08:56:45.861Z,16.40
2022-09-22T08:59:26.591Z,16.40
2022-09-22T09:02:01.143Z,16.40
2022-09-22T09:04:49.321Z,16.60
2022-09-22T09:07:28.221Z,16.70
2022-09-22T09:10:00.741Z,16.80
2022-09-22T09:12:41.594Z,17.00
2022-09-22T09:15:29.602Z,17.10
2022-09-22T09:18:01.597Z,17.20
2022-09-22T09:20:48.514Z,17.30
2022-09-22T09:26:20.880Z,17.70
2022-09-22T09:29:06.021Z,17.90
2022-09-22T09:31:43.418Z,17.80
2022-09-22T09:34:17.969Z,17.90
2022-09-22T09:36:55.336Z,18.20
2022-09-22T09:39:32.548Z,18.40
2022-09-22T09:42:01.312Z,18.60
2022-09-22T09:44:40.139Z,18.90
2022-09-22T09:47:38.555Z,19.10
2022-09-22T09:50:06.223Z,19.30
2022-09-22T09:52:38.370Z,19.60
2022-09-22T09:55:35.701Z,19.80
2022-09-22T09:58:11.177Z,20.00
2022-09-22T10:00:57.253Z,20.10
2022-09-22T10:03:30.804Z,20.40
2022-09-22T10:06:02.644Z,20.70
2022-09-22T10:08:34.190Z,20.80
2022-09-22T10:11:03.976Z,21.00
2022-09-22T10:13:36.377Z,21.10
2022-09-22T10:16:17.153Z,21.30
2022-09-22T10:18:43.871Z,21.60
2022-09-22T10:21:23.651Z,21.90
2022-09-22T10:23:56.527Z,21.80
2022-09-22T10:26:31.239Z,21.80
2022-09-22T10:29:18.148Z,22.10
2022-09-22T10:32:02.497Z,22.50
2022-09-22T10:34:33.663Z,22.80
2022-09-22T10:37:01.720Z,23.10
2022-09-22T10:39:49.826Z,23.40
2022-09-22T10:42:48.209Z,23.70
2022-09-22T10:45:19.145Z,24.00
2022-09-22T10:47:57.858Z,24.10
2022-09-22T10:50:37.942Z,24.20
2022-09-22T10:53:43.035Z,24.40
2022-09-22T10:56:15.606Z,24.50
2022-09-22T10:59:23.649Z,24.70
2022-09-22T11:02:25.094Z,24.90
2022-09-22T11:05:10.233Z,24.90
2022-09-22T11:08:16.060Z,25.10
2022-09-22T11:11:28.381Z,25.30
2022-09-22T11:14:13.801Z,25.30
2022-09-22T11:16:53.182Z,25.30
2022-09-22T11:19:52.915Z,25.30
2022-09-22T11:22:51.816Z,25.20
2022-09-22T11:25:44.143Z,25.30
2022-09-22T11:28:54.911Z,25.40
2022-09-22T11:32:01.570Z,25.70
2022-09-22T11:34:55.457Z,25.90
2022-09-22T11:37:45.079Z,26.10
2022-09-22T11:40:32.917Z,26.20
2022-09-22T11:43:02.279Z,26.30
2022-09-22T11:45:54.314Z,26.50
2022-09-22T11:48:29.970Z,26.50
2022-09-22T11:51:11.153Z,26.30
2022-09-22T11:53:56.169Z,26.30
2022-09-22T11:56:54.234Z,26.30
2022-09-22T11:59:32.645Z,26.60
2022-09-22T12:02:04.855Z,26.60
2022-09-22T12:04:45.844Z,26.80
2022-09-22T12:07:29.236Z,26.80
2022-09-22T12:10:05.955Z,26.80
2022-09-22T12:12:33.766Z,26.90
2022-09-22T12:15:08.238Z,26.90
2022-09-22T12:18:02.072Z,27.00
2022-09-22T12:20:56.424Z,26.80
2022-09-22T12:23:31.422Z,27.00
2022-09-22T12:26:03.613Z,27.30
2022-09-22T12:28:32.481Z,27.50
2022-09-22T12:31:15.634Z,27.50
2022-09-22T12:33:51.422Z,27.40
2022-09-22T12:36:28.873Z,27.40
2022-09-22T12:39:19.268Z,27.20
2022-09-22T12:41:50.312Z,27.20
2022-09-22T12:44:25.449Z,27.30
2022-09-22T12:46:56.842Z,27.40
2022-09-22T12:49:23.860Z,27.10
2022-09-22T12:51:51.159Z,27.00
2022-09-22T12:54:23.957Z,27.00
2022-09-22T12:57:00.390Z,27.20
2022-09-22T12:59:36.341Z,27.30
2022-09-22T13:02:15.898Z,27.20
2022-09-22T13:05:03.563Z,27.20
2022-09-22T13:07:48.345Z,27.10
2022-09-22T13:10:24.663Z,27.20
2022-09-22T13:13:06.240Z,27.30
2022-09-22T13:15:49.344Z,27.40
2022-09-22T13:18:37.220Z,27.40
2022-09-22T13:21:16.157Z,27.50
2022-09-22T13:23:51.880Z,27.50
2022-09-22T13:26:40.534Z,27.60
2022-09-22T13:29:19.980Z,27.50
2022-09-22T13:31:56.676Z,27.50
2022-09-22T13:34:31.018Z,27.40
2022-09-22T13:37:07.672Z,27.30
2022-09-22T13:39:43.558Z,27.20
2022-09-22T13:42:14.612Z,27.10
2022-09-22T13:44:47.535Z,27.20
2022-09-22T13:47:24.342Z,27.20
2022-09-22T13:49:54.928Z,27.00
2022-09-22T13:52:24.915Z,26.80
2022-09-22T13:54:59.500Z,26.70
2022-09-22T13:57:31.501Z,26.60
2022-09-22T14:00:00.209Z,26.50
2022-09-22T14:02:34.589Z,26.50
2022-09-22T14:05:16.356Z,26.60
2022-09-22T14:08:07.911Z,26.60
2022-09-22T14:10:33.997Z,26.60
2022-09-22T14:13:00.656Z,26.70
2022-09-22T14:15:50.587Z,26.70
2022-09-22T14:18:27.173Z,26.70
2022-09-22T14:20:59.547Z,26.60
2022-09-22T14:23:32.356Z,26.40
2022-09-22T14:26:03.777Z,26.20
2022-09-22T14:28:36.492Z,26.10
2022-09-22T14:31:16.205Z,26.00
2022-09-22T14:33:48.493Z,26.00
2022-09-22T14:36:19.033Z,25.90
2022-09-22T14:39:05.997Z,25.80
2022-09-22T14:41:37.282Z,25.80
2022-09-22T14:44:48.241Z,25.80
2022-09-22T14:47:27.859Z,25.80
2022-09-22T14:50:38.156Z,25.70
2022-09-22T14:53:27.336Z,25.80
2022-09-22T14:56:27.599Z,25.80
2022-09-22T14:59:26.365Z,25.80
2022-09-22T15:02:13.578Z,25.70
2022-09-22T15:04:50.100Z,25.50
2022-09-22T15:07:25.746Z,25.40
2022-09-22T15:09:59.468Z,25.40
2022-09-22T15:12:37.952Z,25.40
2022-09-22T15:15:22.231Z,25.50
2022-09-22T15:18:09.514Z,25.50
2022-09-22T15:20:41.095Z,25.50
2022-09-22T15:23:16.394Z,25.50
2022-09-22T15:25:46.797Z,25.60
2022-09-22T15:28:16.305Z,25.70
2022-09-22T15:30:44.751Z,25.90
2022-09-22T15:33:15.400Z,26.00
2022-09-22T15:35:47.108Z,26.10
2022-09-22T15:38:26.639Z,26.10
2022-09-22T15:40:57.357Z,26.20
2022-09-22T15:43:30.649Z,26.40
2022-09-22T15:46:07.142Z,26.90
2022-09-22T15:48:39.178Z,28.00
2022-09-22T15:51:15.867Z,29.10
2022-09-22T15:53:42.551Z,30.40
2022-09-22T15:56:19.861Z,31.40
2022-09-22T15:58:47.958Z,32.30
2022-09-22T16:01:17.899Z,33.10
2022-09-22T16:03:45.279Z,33.50
2022-09-22T16:06:15.537Z,33.80
2022-09-22T16:08:46.183Z,34.10
2022-09-22T16:11:15.595Z,34.40
2022-09-22T16:13:45.453Z,34.70
2022-09-22T16:16:14.821Z,34.70
2022-09-22T16:18:41.958Z,34.70
2022-09-22T16:21:30.493Z,34.70
2022-09-22T16:24:03.404Z,34.50
2022-09-22T16:26:31.693Z,34.50
2022-09-22T16:28:59.167Z,34.50
2022-09-22T16:31:27.522Z,34.40
2022-09-22T16:34:06.770Z,34.20
2022-09-22T16:36:39.857Z,33.90
2022-09-22T16:39:08.968Z,33.70
2022-09-22T16:41:36.702Z,33.40
2022-09-22T16:44:04.522Z,33.10
2022-09-22T16:46:34.973Z,32.90
2022-09-22T16:49:05.181Z,32.50
2022-09-22T16:51:36.912Z,32.10
2022-09-22T16:54:07.379Z,31.40
2022-09-22T16:56:36.097Z,30.70
2022-09-22T16:59:06.429Z,30.00
2022-09-22T17:01:38.276Z,29.10
2022-09-22T17:04:09.619Z,27.80
2022-09-22T17:06:38.189Z,26.50
2022-09-22T17:09:08.721Z,25.40
2022-09-22T17:11:45.441Z,24.50
2022-09-22T17:14:22.128Z,23.70
2022-09-22T17:16:53.836Z,23.00
2022-09-22T17:19:23.261Z,22.50
2022-09-22T17:21:55.318Z,22.00
2022-09-22T17:24:23.134Z,21.60
2022-09-22T17:26:55.599Z,21.20
2022-09-22T17:29:25.550Z,20.90
2022-09-22T17:32:02.941Z,20.60
2022-09-22T17:34:32.939Z,20.10
2022-09-22T17:37:00.758Z,19.90
2022-09-22T17:39:29.523Z,19.60
2022-09-22T17:41:56.964Z,19.40
2022-09-22T17:44:28.271Z,19.20
2022-09-22T17:47:13.789Z,19.10
2022-09-22T17:49:59.373Z,18.90
2022-09-22T17:52:28.434Z,18.60
2022-09-22T17:55:06.928Z,18.50
2022-09-22T17:57:44.592Z,18.40
2022-09-22T18:00:19.285Z,18.20
2022-09-22T18:02:46.702Z,18.00
2022-09-22T18:05:15.530Z,17.80
2022-09-22T18:07:45.762Z,17.70
2022-09-22T18:10:16.027Z,17.60
2022-09-22T18:12:44.302Z,17.40
2022-09-22T18:15:19.023Z,17.30
2022-09-22T18:17:45.707Z,17.10
2022-09-22T18:20:17.031Z,16.80
2022-09-22T18:22:48.363Z,16.60
2022-09-22T18:25:16.516Z,16.50
2022-09-22T18:27:43.457Z,16.30
2022-09-22T18:30:14.133Z,16.10
2022-09-22T18:32:42.675Z,16.00
2022-09-22T18:35:09.656Z,15.80
2022-09-22T18:37:38.469Z,15.60
2022-09-22T18:40:05.548Z,15.50
2022-09-22T18:42:36.580Z,15.40
2022-09-22T18:45:03.710Z,15.20
2022-09-22T18:47:30.473Z,15.10
2022-09-22T18:49:59.167Z,14.90
2022-09-22T18:52:25.876Z,14.80
2022-09-22T18:54:54.116Z,14.80
2022-09-22T18:57:25.549Z,14.70
2022-09-22T18:59:53.866Z,14.60
2022-09-22T19:02:23.311Z,14.50
2022-09-22T19:04:51.482Z,14.40
2022-09-22T19:07:41.601Z,14.30
2022-09-22T19:10:11.840Z,14.20
2022-09-22T19:12:41.435Z,14.10
2022-09-22T19:15:15.162Z,14.00
2022-09-22T19:17:44.547Z,14.00
2022-09-22T19:20:17.241Z,14.00
2022-09-22T19:22:45.326Z,13.90
2022-09-22T19:25:12.307Z,13.90
2022-09-22T19:27:42.301Z,13.90
2022-09-22T19:30:09.967Z,13.80
2022-09-22T19:32:39.268Z,13.80
2022-09-22T19:35:08.019Z,13.80
2022-09-22T19:37:35.046Z,13.80
2022-09-22T19:40:02.137Z,13.60
2022-09-22T19:42:29.019Z,13.60
2022-09-22T19:44:55.763Z,13.50
2022-09-22T19:47:22.977Z,13.50
2022-09-22T19:49:49.932Z,13.50
2022-09-22T19:52:16.812Z,13.40
2022-09-22T19:54:45.686Z,13.30
2022-09-22T19:57:13.093Z,13.20
2022-09-22T19:59:39.993Z,13.20
2022-09-22T20:02:17.179Z,13.10
2022-09-22T20:04:46.935Z,13.00
2022-09-22T20:07:13.737Z,13.00
2022-09-22T20:09:40.568Z,12.90
2022-09-22T20:12:07.295Z,12.80
2022-09-22T20:14:36.746Z,12.80
2022-09-22T20:17:09.337Z,12.70
2022-09-22T20:19:42.085Z,12.60
2022-09-22T20:22:24.560Z,12.50
2022-09-22T20:24:57.322Z,12.50
2022-09-22T20:27:32.637Z,12.40
2022-09-22T20:30:00.128Z,12.40
2022-09-22T20:32:37.698Z,12.30
2022-09-22T20:35:04.687Z,12.30
2022-09-22T20:37:31.789Z,12.20
2022-09-22T20:40:00.768Z,12.20
2022-09-22T20:42:27.389Z,12.20
2022-09-22T20:44:54.975Z,12.10
2022-09-22T20:47:25.319Z,12.00
2022-09-22T20:49:52.194Z,12.10
2022-09-22T20:52:20.280Z,12.00
2022-09-22T20:54:48.142Z,11.90
2022-09-22T20:57:17.176Z,11.90
2022-09-22T20:59:45.898Z,11.80
2022-09-22T21:02:13.911Z,11.80
2022-09-22T21:04:41.107Z,11.80
2022-09-22T21:07:11.134Z,11.70
2022-09-22T21:09:58.746Z,11.70
2022-09-22T21:12:31.064Z,11.70
2022-09-22T21:15:00.389Z,11.70
2022-09-22T21:17:27.851Z,11.70
2022-09-22T21:19:57.696Z,11.70
2022-09-22T21:22:28.250Z,11.60
2022-09-22T21:24:55.260Z,11.60
2022-09-22T21:27:22.034Z,11.50
2022-09-22T21:29:49.048Z,11.50
2022-09-22T21:32:19.874Z,11.50
2022-09-22T21:34:46.559Z,11.50
2022-09-22T21:37:15.478Z,11.50
2022-09-22T21:39:42.154Z,11.50
2022-09-22T21:42:08.846Z,11.40
2022-09-22T21:44:35.499Z,11.40
2022-09-22T21:47:04.843Z,11.30
2022-09-22T21:49:31.464Z,11.30
2022-09-22T21:51:58.604Z,11.30
2022-09-22T21:54:25.296Z,11.30
2022-09-22T21:56:51.965Z,11.20
2022-09-22T21:59:18.614Z,11.20
2022-09-22T22:01:45.418Z,11.00
2022-09-22T22:04:15.205Z,11.00
2022-09-22T22:06:43.669Z,11.00
2022-09-22T22:09:25.217Z,11.00
2022-09-22T22:11:58.402Z,11.00
2022-09-22T22:14:32.634Z,10.90
2022-09-22T22:17:02.083Z,11.00
2022-09-22T22:19:28.956Z,10.90
2022-09-22T22:21:58.138Z,10.80
2022-09-22T22:24:28.594Z,10.80
2022-09-22T22:27:05.771Z,10.80
2022-09-22T22:29:36.364Z,10.80
2022-09-22T22:32:05.633Z,10.70
2022-09-22T22:34:32.488Z,10.60
2022-09-22T22:37:01.854Z,10.60
2022-09-22T22:39:29.795Z,10.60
2022-09-22T22:41:58.545Z,10.60
2022-09-22T22:44:25.236Z,10.60
2022-09-22T22:46:51.879Z,10.60
2022-09-22T22:49:19.338Z,10.60
2022-09-22T22:51:46.089Z,10.60
2022-09-22T22:54:13.271Z,10.60
2022-09-22T22:56:44.252Z,10.60
2022-09-22T22:59:14.866Z,10.50
2022-09-22T23:01:43.947Z,10.50
2022-09-22T23:04:13.039Z,10.50
2022-09-22T23:06:45.021Z,10.40
2022-09-22T23:09:14.627Z,10.40
2022-09-22T23:11:42.795Z,10.30
2022-09-22T23:14:15.710Z,10.30
2022-09-22T23:16:45.065Z,10.30
2022-09-22T23:19:14.040Z,10.20
2022-09-22T23:21:43.312Z,10.20
2022-09-22T23:24:15.232Z,10.20
2022-09-22T23:26:44.941Z,10.10
2022-09-22T23:29:12.062Z,10.10
2022-09-22T23:31:38.700Z,10.10
2022-09-22T23:34:05.616Z,10.00
2022-09-22T23:36:32.211Z,10.00
2022-09-22T23:39:04.636Z,10.00
2022-09-22T23:41:33.795Z,10.00
2022-09-22T23:44:00.601Z,10.00
2022-09-22T23:46:27.857Z,10.00
2022-09-22T23:48:55.461Z,10.00
2022-09-22T23:51:22.509Z,9.90
2022-09-22T23:53:49.242Z,9.80
2022-09-22T23:56:19.547Z,9.80
2022-09-22T23:58:46.434Z,9.70
